Rimnicu Vilcea, Romania
Current Conditions -  °F | °C
As of 4:00 AM on Wednesday 22 Oct 2014 (Local Time) from LRSB Reporting Station
Light Fog Light Fog  
Wind Chill: 46°   Ceiling: Unl
Heat Index: 48°   Visibility: 1.8mi
Dew Point: 48°   Wind: 5mph
Humidity: 100%   Direction: 250°WSW
Pressure: 29.74"   Gusts: NA
Location:  45.11°N, 24.38°E
Report Text: LRSB 220100Z 25004KT 3000 BCFG BR SCT023 09/09 Q1007
Loading
Personal Weather Stations






























Interactive Weather Map
Tropical Storm Tracking
New forecast layout! Learn more

10-Day Weather Forecast

Advertisements
Track Severe Weather on mobile